createdAt,value
2018-12-10T00:01:31.485Z,1.2
2018-12-10T00:04:31.545Z,1.2
2018-12-10T00:07:31.180Z,1.4
2018-12-10T00:10:31.587Z,1.6
2018-12-10T00:13:31.712Z,1.2
2018-12-10T00:16:31.296Z,1.5
2018-12-10T00:19:31.305Z,1.2
2018-12-10T00:22:31.033Z,1.4
2018-12-10T00:25:31.084Z,1.2
2018-12-10T00:28:31.245Z,1.2
2018-12-10T00:31:31.360Z,1
2018-12-10T00:34:31.062Z,1.2
2018-12-10T00:37:31.348Z,1.2
2018-12-10T00:40:31.389Z,1.5
2018-12-10T00:43:31.204Z,1.2
2018-12-10T00:46:31.952Z,1.2
2018-12-10T00:49:31.215Z,1.2
2018-12-10T00:52:31.124Z,1
2018-12-10T00:55:31.215Z,1.3
2018-12-10T00:58:31.401Z,1.4
2018-12-10T01:01:31.116Z,1
2018-12-10T01:04:31.301Z,1.3
2018-12-10T01:07:31.162Z,1.3
2018-12-10T01:10:31.039Z,1.1
2018-12-10T01:13:31.000Z,1.2
2018-12-10T01:16:31.325Z,1.4
2018-12-10T01:19:30.965Z,1.2
2018-12-10T01:22:31.165Z,1.2
2018-12-10T01:25:31.107Z,1.3
2018-12-10T01:28:31.234Z,1.2
2018-12-10T01:31:31.417Z,1.3
2018-12-10T01:34:30.881Z,1.2
2018-12-10T01:37:31.120Z,1.2
2018-12-10T01:40:31.305Z,1.3
2018-12-10T01:43:30.984Z,1
2018-12-10T01:46:31.502Z,1
2018-12-10T01:49:31.473Z,1
2018-12-10T01:52:30.978Z,1.2
2018-12-10T01:55:31.226Z,0.9
2018-12-10T01:58:30.938Z,1.1
2018-12-10T02:01:31.850Z,1.1
2018-12-10T02:04:31.145Z,1
2018-12-10T02:07:31.876Z,1.1
2018-12-10T02:10:30.970Z,1.2
2018-12-10T02:13:31.547Z,1.2
2018-12-10T02:16:31.473Z,1.2
2018-12-10T02:19:31.128Z,1.1
2018-12-10T02:22:31.268Z,1.2
2018-12-10T02:25:31.488Z,1
2018-12-10T02:28:30.979Z,1.1
2018-12-10T02:31:31.217Z,1.1
2018-12-10T02:34:31.263Z,1.2
2018-12-10T02:37:31.104Z,1.2
2018-12-10T02:40:31.281Z,1.2
2018-12-10T02:43:31.065Z,1.2
2018-12-10T02:46:31.313Z,1
2018-12-10T02:49:31.076Z,1.1
2018-12-10T02:52:31.218Z,1
2018-12-10T02:55:30.950Z,1.2
2018-12-10T02:58:31.032Z,1.1
2018-12-10T03:01:31.073Z,1.1
2018-12-10T03:04:30.966Z,1.2
2018-12-10T03:07:30.993Z,1.2
2018-12-10T03:10:30.952Z,1.9
2018-12-10T03:13:30.913Z,2
2018-12-10T03:16:31.380Z,1.1
2018-12-10T03:19:31.086Z,1.2
2018-12-10T03:22:31.137Z,1.2
2018-12-10T03:25:31.439Z,1
2018-12-10T03:28:31.159Z,1.2
2018-12-10T03:31:31.210Z,1.2
2018-12-10T03:34:31.180Z,1.2
2018-12-10T03:37:31.212Z,1.2
2018-12-10T03:40:31.133Z,1.3
2018-12-10T03:43:31.436Z,1.2
2018-12-10T03:46:31.208Z,1.3
2018-12-10T03:49:30.952Z,1
2018-12-10T03:52:31.442Z,1
2018-12-10T03:55:31.995Z,1.1
2018-12-10T03:58:31.516Z,1.3
2018-12-10T04:01:31.481Z,1.2
2018-12-10T04:04:31.194Z,1.2
2018-12-10T04:07:30.981Z,1.2
2018-12-10T04:10:30.974Z,1.3
2018-12-10T04:13:31.190Z,1.4
2018-12-10T04:16:31.299Z,1.1
2018-12-10T04:19:31.063Z,1
2018-12-10T04:22:31.069Z,1.1
2018-12-10T04:25:30.783Z,1.2
2018-12-10T04:28:31.065Z,1.2
2018-12-10T04:31:30.930Z,1.3
2018-12-10T04:34:30.975Z,1.1
2018-12-10T04:37:31.145Z,1.2
2018-12-10T04:40:31.098Z,1.1
2018-12-10T04:43:31.180Z,1.2
2018-12-10T04:46:30.839Z,1.1
2018-12-10T04:49:31.411Z,1.2
2018-12-10T04:52:30.916Z,1.2
2018-12-10T04:55:31.079Z,1.1
2018-12-10T04:58:31.120Z,1.2
2018-12-10T05:01:30.861Z,1.2
2018-12-10T05:04:31.248Z,1
2018-12-10T05:07:30.893Z,1.2
2018-12-10T05:10:31.163Z,1.2
2018-12-10T05:13:30.995Z,1.4
2018-12-10T05:16:30.941Z,1.2
2018-12-10T05:19:31.129Z,1.3
2018-12-10T05:22:31.263Z,1.1
2018-12-10T05:25:30.869Z,1.5
2018-12-10T05:28:31.750Z,1.1
2018-12-10T05:31:31.266Z,1.4
2018-12-10T05:34:30.859Z,1.3
2018-12-10T05:37:30.964Z,1.1
2018-12-10T05:40:31.466Z,1.2
2018-12-10T05:43:30.849Z,1.3
2018-12-10T05:46:30.983Z,1.6
2018-12-10T05:49:31.244Z,1.3
2018-12-10T05:52:31.076Z,1.2
2018-12-10T05:55:31.000Z,1.3
2018-12-10T05:58:32.035Z,1.2
2018-12-10T06:01:31.073Z,1.2
2018-12-10T06:04:30.976Z,1
2018-12-10T06:07:31.041Z,1.3
2018-12-10T06:10:31.103Z,1.4
2018-12-10T06:13:30.786Z,1.3
2018-12-10T06:16:31.284Z,1.2
2018-12-10T06:19:31.064Z,1.1
2018-12-10T06:22:30.808Z,1.3
2018-12-10T06:25:30.835Z,1.2
2018-12-10T06:28:31.193Z,1.5
2018-12-10T06:31:30.813Z,1.4
2018-12-10T06:34:30.773Z,1
2018-12-10T06:37:38.156Z,1.2
2018-12-10T06:40:30.871Z,1.7
2018-12-10T06:43:31.127Z,11
2018-12-10T06:46:31.135Z,5.6
2018-12-10T06:49:31.047Z,8.3
2018-12-10T06:52:30.913Z,6.6
2018-12-10T06:55:30.945Z,6.7
2018-12-10T06:58:30.796Z,3.2
2018-12-10T07:01:31.228Z,5.3
2018-12-10T07:04:31.154Z,4.6
2018-12-10T07:07:30.809Z,4.5
2018-12-10T07:10:30.794Z,7.8
2018-12-10T07:13:30.851Z,3.9
2018-12-10T07:16:30.769Z,5.6
2018-12-10T07:19:31.152Z,4.3
2018-12-10T07:22:30.985Z,5.3
2018-12-10T07:25:30.817Z,4.3
2018-12-10T07:28:31.317Z,11.1
2018-12-10T07:31:30.977Z,5.6
2018-12-10T07:34:30.997Z,6.7
2018-12-10T07:37:31.073Z,3.9
2018-12-10T07:40:31.233Z,4.2
2018-12-10T07:43:31.117Z,3.3
2018-12-10T07:46:31.183Z,4.2
2018-12-10T07:49:30.907Z,3.3
2018-12-10T07:52:30.976Z,4.8
2018-12-10T07:55:30.898Z,3
2018-12-10T07:58:31.073Z,5.4
2018-12-10T08:01:30.906Z,3.4
2018-12-10T08:04:30.948Z,4.6
2018-12-10T08:07:31.039Z,3.9
2018-12-10T08:10:30.922Z,4
2018-12-10T08:13:31.559Z,6.1
2018-12-10T08:16:30.893Z,3.4
2018-12-10T08:19:31.686Z,3.2
2018-12-10T08:22:30.834Z,4
2018-12-10T08:25:31.409Z,4.6
2018-12-10T08:28:30.915Z,2.8
2018-12-10T08:31:30.782Z,4.9
2018-12-10T08:34:31.044Z,2.9
2018-12-10T08:37:31.217Z,2.2
2018-12-10T08:40:31.199Z,2.9
2018-12-10T08:43:31.262Z,3.7
2018-12-10T08:46:30.915Z,3.3
2018-12-10T08:49:31.382Z,3.5
2018-12-10T08:52:31.059Z,2.7
2018-12-10T08:55:31.051Z,2.7
2018-12-10T08:58:35.604Z,2.7
2018-12-10T09:01:31.064Z,3
2018-12-10T09:04:31.182Z,1.7
2018-12-10T09:07:30.842Z,2.6
2018-12-10T09:10:31.368Z,2.5
2018-12-10T09:13:31.177Z,2.2
2018-12-10T09:16:31.313Z,2.3
2018-12-10T09:19:31.344Z,1.9
2018-12-10T09:22:31.021Z,2.2
2018-12-10T09:25:31.364Z,2.1
2018-12-10T09:28:31.261Z,2.4
2018-12-10T09:31:30.916Z,1.8
2018-12-10T09:34:30.739Z,2.6
2018-12-10T09:37:30.992Z,2.2
2018-12-10T09:40:31.046Z,2.3
2018-12-10T09:43:30.896Z,1.4
2018-12-10T09:46:31.191Z,1.7
2018-12-10T09:49:31.005Z,1.8
2018-12-10T09:52:31.359Z,1.8
2018-12-10T09:55:31.163Z,1.8
2018-12-10T09:58:31.008Z,2.5
2018-12-10T10:01:31.033Z,1.4
2018-12-10T10:04:31.263Z,3
2018-12-10T10:07:31.516Z,1.5
2018-12-10T10:10:31.649Z,1.8
2018-12-10T10:13:31.273Z,1.8
2018-12-10T10:16:31.010Z,1.3
2018-12-10T10:19:30.976Z,1.6
2018-12-10T10:22:31.130Z,1.6
2018-12-10T10:25:31.149Z,1.5
2018-12-10T10:28:30.877Z,1.5
2018-12-10T10:31:31.797Z,1.5
2018-12-10T10:34:31.286Z,2.6
2018-12-10T10:37:30.892Z,1.8
2018-12-10T10:40:31.091Z,1.8
2018-12-10T10:43:31.166Z,1.8
2018-12-10T10:46:30.749Z,1.4
2018-12-10T10:49:30.874Z,1.5
2018-12-10T10:52:33.883Z,3
2018-12-10T10:55:30.953Z,1.5
2018-12-10T10:58:30.860Z,1.4
2018-12-10T11:01:30.910Z,1.5
2018-12-10T11:04:38.124Z,1.4
2018-12-10T11:07:31.859Z,1.6
2018-12-10T11:10:31.230Z,1.4
2018-12-10T11:13:31.177Z,1.8
2018-12-10T11:16:31.101Z,1.5
2018-12-10T11:19:30.910Z,1.4
2018-12-10T11:22:30.962Z,1.6
2018-12-10T11:25:30.794Z,2
2018-12-10T11:28:31.322Z,1.3
2018-12-10T11:31:30.892Z,1.4
2018-12-10T11:34:31.083Z,1.5
2018-12-10T11:37:31.265Z,1.5
2018-12-10T11:40:30.663Z,2.1
2018-12-10T11:43:30.832Z,2.3
2018-12-10T11:46:31.638Z,1.6
2018-12-10T11:49:31.248Z,1.6
2018-12-10T11:52:30.833Z,1.5
2018-12-10T11:55:31.155Z,1.5
2018-12-10T11:58:31.485Z,2.1
2018-12-10T12:01:31.309Z,1.9
2018-12-10T12:04:30.674Z,1.6
2018-12-10T12:07:30.850Z,1.6
2018-12-10T12:10:30.747Z,1.7
2018-12-10T12:13:31.736Z,1.8
2018-12-10T12:16:31.152Z,1.4
2018-12-10T12:19:30.703Z,1.6
2018-12-10T12:22:30.852Z,1.6
2018-12-10T12:25:31.056Z,1.6
2018-12-10T12:28:30.946Z,1.5
2018-12-10T12:31:30.778Z,1.5
2018-12-10T12:34:30.822Z,1.7
2018-12-10T12:37:30.874Z,1.9
2018-12-10T12:40:31.669Z,1.6
2018-12-10T12:43:31.028Z,1.5
2018-12-10T12:46:31.343Z,1.5
2018-12-10T12:49:30.818Z,1.5
2018-12-10T12:52:30.757Z,2
2018-12-10T12:55:31.271Z,1.6
2018-12-10T12:58:31.181Z,2
2018-12-10T13:01:30.872Z,1.8
2018-12-10T13:04:31.184Z,1.4
2018-12-10T13:07:31.286Z,1.9
2018-12-10T13:10:31.014Z,1.6
2018-12-10T13:13:30.754Z,1.7
2018-12-10T13:16:31.264Z,1.6
2018-12-10T13:19:30.895Z,1.7
2018-12-10T13:22:31.205Z,1.5
2018-12-10T13:25:31.024Z,1.5
2018-12-10T13:28:30.778Z,1.8
2018-12-10T13:31:30.763Z,1.5
2018-12-10T13:34:31.346Z,1.7
2018-12-10T13:37:30.960Z,1.6
2018-12-10T13:40:30.746Z,1.6
2018-12-10T13:43:30.777Z,1.6
2018-12-10T13:46:31.102Z,1.5
2018-12-10T13:49:30.826Z,1.5
2018-12-10T13:52:30.761Z,1.6
2018-12-10T13:55:30.897Z,1.5
2018-12-10T13:58:30.954Z,1.6
2018-12-10T14:01:31.001Z,1.6
2018-12-10T14:04:30.802Z,1.6
2018-12-10T14:07:31.254Z,1.5
2018-12-10T14:10:30.733Z,1.7
2018-12-10T14:13:30.747Z,1.5
2018-12-10T14:16:31.292Z,1.6
2018-12-10T14:19:30.678Z,2.3
2018-12-10T14:22:31.570Z,1.7
2018-12-10T14:25:30.908Z,1.6
2018-12-10T14:28:30.787Z,1.5
2018-12-10T14:31:30.922Z,1.6
2018-12-10T14:34:31.614Z,1.5
2018-12-10T14:37:30.877Z,1.9
2018-12-10T14:40:30.833Z,2.1
2018-12-10T14:43:31.170Z,2
2018-12-10T14:46:30.965Z,1.6
2018-12-10T14:49:30.988Z,1.4
2018-12-10T14:52:30.886Z,1.5
2018-12-10T14:55:30.849Z,1.8
2018-12-10T14:58:30.828Z,1.7
2018-12-10T15:01:31.122Z,1.6
2018-12-10T15:04:30.704Z,1.8
2018-12-10T15:07:30.775Z,1.5
2018-12-10T15:10:30.976Z,1.7
2018-12-10T15:13:31.874Z,1.5
2018-12-10T15:16:30.826Z,1.5
2018-12-10T15:19:30.950Z,1.4
2018-12-10T15:22:30.850Z,1.4
2018-12-10T15:25:30.769Z,1.6
2018-12-10T15:28:31.105Z,1.9
2018-12-10T15:31:30.743Z,1.6
2018-12-10T15:34:31.235Z,1.6
2018-12-10T15:37:30.778Z,1.7
2018-12-10T15:40:30.824Z,1.6
2018-12-10T15:43:31.105Z,1.7
2018-12-10T15:46:30.838Z,1.4
2018-12-10T15:49:31.124Z,1.7
2018-12-10T15:52:31.204Z,1.6
2018-12-10T15:55:31.025Z,1.7
2018-12-10T15:58:31.030Z,1.6
2018-12-10T16:01:31.611Z,1.6
2018-12-10T16:04:30.965Z,1.7
2018-12-10T16:07:30.849Z,1.6
2018-12-10T16:10:30.732Z,1.7
2018-12-10T16:13:30.907Z,2.3
2018-12-10T16:16:30.929Z,1.5
2018-12-10T16:19:31.093Z,1.5
2018-12-10T16:22:30.835Z,1.6
2018-12-10T16:25:30.877Z,1.4
2018-12-10T16:28:30.864Z,1.6
2018-12-10T16:31:30.930Z,1.9
2018-12-10T16:34:31.732Z,1.6
2018-12-10T16:37:30.750Z,1.6
2018-12-10T16:40:31.201Z,1.7
2018-12-10T16:43:30.551Z,1.7
2018-12-10T16:46:30.728Z,1.5
2018-12-10T16:49:30.804Z,2.6
2018-12-10T16:52:30.893Z,1.7
2018-12-10T16:55:31.027Z,2.2
2018-12-10T16:58:30.931Z,1.6
2018-12-10T17:01:30.723Z,2.5
2018-12-10T17:04:30.574Z,2.4
2018-12-10T17:07:30.959Z,2
2018-12-10T17:10:30.812Z,1.8
2018-12-10T17:13:30.800Z,2
2018-12-10T17:16:30.821Z,1.7
2018-12-10T17:19:31.091Z,1.8
2018-12-10T17:22:30.520Z,2.2
2018-12-10T17:25:31.002Z,2.3
2018-12-10T17:28:30.908Z,6.8
2018-12-10T17:31:31.132Z,2.2
2018-12-10T17:34:30.961Z,2.2
2018-12-10T17:37:30.947Z,1.5
2018-12-10T17:40:31.091Z,2.5
2018-12-10T17:43:31.576Z,2.1
2018-12-10T17:46:30.957Z,2.4
2018-12-10T17:49:30.510Z,1.6
2018-12-10T17:52:30.837Z,1.5
2018-12-10T17:55:31.551Z,2.7
2018-12-10T17:58:30.860Z,1.7
2018-12-10T18:01:30.899Z,1.9
2018-12-10T18:04:30.760Z,1.7
2018-12-10T18:07:30.913Z,2.3
2018-12-10T18:10:30.949Z,1.5
2018-12-10T18:13:30.951Z,2.6
2018-12-10T18:16:31.472Z,1.5
2018-12-10T18:19:31.096Z,1.6
2018-12-10T18:22:30.857Z,1.7
2018-12-10T18:25:30.655Z,1.9
2018-12-10T18:28:30.978Z,2.1
2018-12-10T18:31:30.788Z,1.6
2018-12-10T18:34:30.504Z,1.4
2018-12-10T18:37:30.805Z,1.5
2018-12-10T18:40:30.831Z,2.2
2018-12-10T18:43:30.542Z,10.4
2018-12-10T18:46:30.820Z,2.5
2018-12-10T18:49:30.631Z,2.3
2018-12-10T18:52:30.939Z,5.9
2018-12-10T18:55:30.688Z,6.4
2018-12-10T18:58:31.063Z,3.8
2018-12-10T19:01:30.980Z,3.9
2018-12-10T19:04:30.669Z,4.5
2018-12-10T19:07:31.015Z,3.8
2018-12-10T19:10:30.970Z,4
2018-12-10T19:13:30.579Z,5.9
2018-12-10T19:16:30.658Z,2
2018-12-10T19:19:31.130Z,2.3
2018-12-10T19:22:32.337Z,2.7
2018-12-10T19:25:31.930Z,3.1
2018-12-10T19:28:30.995Z,4.6
2018-12-10T19:31:30.992Z,4.2
2018-12-10T19:34:30.906Z,2.8
2018-12-10T19:37:30.502Z,5
2018-12-10T19:40:31.014Z,5.1
2018-12-10T19:43:30.724Z,5.7
2018-12-10T19:46:30.886Z,8.7
2018-12-10T19:49:30.932Z,3
2018-12-10T19:52:30.536Z,3.9
2018-12-10T19:55:31.059Z,3.8
2018-12-10T19:58:31.190Z,4.4
2018-12-10T20:01:31.425Z,3.4
2018-12-10T20:04:30.422Z,3.4
2018-12-10T20:07:31.160Z,3
2018-12-10T20:10:30.682Z,2.4
2018-12-10T20:13:30.952Z,3.2
2018-12-10T20:16:30.577Z,2.5
2018-12-10T20:19:31.358Z,4.6
2018-12-10T20:22:30.853Z,5.2
2018-12-10T20:25:30.859Z,2.5
2018-12-10T20:28:30.735Z,2.9
2018-12-10T20:31:31.371Z,4.9
2018-12-10T20:34:31.431Z,2.8
2018-12-10T20:37:31.078Z,5.1
2018-12-10T20:40:31.040Z,3.7
2018-12-10T20:43:30.520Z,3.2
2018-12-10T20:46:30.898Z,2.9
2018-12-10T20:49:30.884Z,3
2018-12-10T20:52:30.681Z,2.4
2018-12-10T20:55:30.649Z,2.5
2018-12-10T20:58:30.737Z,2.5
2018-12-10T21:01:30.801Z,2.8
2018-12-10T21:04:31.377Z,2
2018-12-10T21:07:30.995Z,1.9
2018-12-10T21:10:30.719Z,2.3
2018-12-10T21:13:30.552Z,1.9
2018-12-10T21:16:30.900Z,3.7
2018-12-10T21:19:30.669Z,1.8
2018-12-10T21:22:31.059Z,2.2
2018-12-10T21:25:30.511Z,1.8
2018-12-10T21:28:30.918Z,1.7
2018-12-10T21:31:30.637Z,1.9
2018-12-10T21:34:30.886Z,1.5
2018-12-10T21:37:30.889Z,1.4
2018-12-10T21:40:30.919Z,2.2
2018-12-10T21:43:30.937Z,2.4
2018-12-10T21:46:30.708Z,1.9
2018-12-10T21:49:31.040Z,1.7
2018-12-10T21:52:30.768Z,2.2
2018-12-10T21:55:30.878Z,1.5
2018-12-10T21:58:30.429Z,2.6
2018-12-10T22:01:30.509Z,1.4
2018-12-10T22:04:30.539Z,2
2018-12-10T22:07:30.397Z,2.4
2018-12-10T22:10:30.592Z,1.6
2018-12-10T22:13:30.578Z,1.7
2018-12-10T22:16:30.921Z,1.7
2018-12-10T22:19:31.266Z,2
2018-12-10T22:22:30.977Z,1.7
2018-12-10T22:25:30.436Z,1.5
2018-12-10T22:28:30.844Z,2.3
2018-12-10T22:31:30.618Z,1.5
2018-12-10T22:34:30.785Z,1.5
2018-12-10T22:37:30.847Z,1.4
2018-12-10T22:40:30.733Z,1.5
2018-12-10T22:43:30.839Z,1.7
2018-12-10T22:46:30.818Z,1.5
2018-12-10T22:49:30.636Z,1.4
2018-12-10T22:52:30.563Z,1.8
2018-12-10T22:55:30.660Z,1.9
2018-12-10T22:58:31.123Z,1.7
2018-12-10T23:01:30.448Z,1.5
2018-12-10T23:04:30.793Z,1.5
2018-12-10T23:07:30.662Z,1.4
2018-12-10T23:10:30.604Z,1.5
2018-12-10T23:13:30.726Z,2.8
2018-12-10T23:16:31.046Z,1.4
2018-12-10T23:19:30.722Z,1.6
2018-12-10T23:22:31.318Z,1.5
2018-12-10T23:25:30.822Z,1.6
2018-12-10T23:28:30.515Z,2.2
2018-12-10T23:31:30.783Z,1.9
2018-12-10T23:34:30.717Z,1.4
2018-12-10T23:37:30.653Z,1.6
2018-12-10T23:40:30.456Z,1.4
2018-12-10T23:43:30.868Z,1.4
2018-12-10T23:46:30.551Z,1.5
2018-12-10T23:49:30.781Z,1.6
2018-12-10T23:52:30.702Z,1.6
2018-12-10T23:55:30.817Z,2.4
2018-12-10T23:58:31.134Z,1.4
